x

South Bass Island, Oh (sbio1) Weather Station

6:00pm - Sat 25th Apr 2015 All times are CDT. -5 hours from GMT.

  • Wind
    13mph, 17mph gusts
  • Air Temp 43°f
  • Sea Pressure 1009.1mb
  • South Bass Island, Oh
  • South Bass Island, Oh

More Historic Weather Station data

Upgrade to MSW Pro to gain access to the past 30 days of data for over 8000 Wavebouys and Weather Stations around the globe.

Join Pro

Comparision Forecast

View Surf forecast
   
Sat 04/25 6:00pm 13 17 mph 1009.1mb 43f
5:00pm 11 17 mph 1009.5mb 42f
4:00pm 14 20 mph 1009.4mb 42f
3:00pm 13 20 mph 1009.6mb 42f
2:00pm 17 24 mph 1010.3mb 42f
1:00pm 16 23 mph 1010.5mb 41f
12:00pm 13 17 mph 1011.9mb 42f
11:00am 14 20 mph 1012.2mb 42f
10:00am 15 18 mph 1013.4mb 42f
9:00am 16 20 mph 1013.5mb 42f
8:00am 16 20 mph 1013.6mb 42f
7:00am 14 18 mph 1013.6mb 42f
6:00am 14 16 mph 1013.4mb 42f
5:00am 9 13 mph 1014.2mb 42f
4:00am 8 10 mph 1015.3mb 41f
3:00am 9 11 mph 1015.6mb 40f
2:00am 9 11 mph 1016.4mb 40f
1:00am 2 3 mph 1017.3mb 42f
12:00am 7 11 mph 1016.4mb 44f
Fri 04/24 11:00pm 16 18 mph 1015.6mb 46f
10:00pm 15 16 mph 1015.8mb 46f
9:00pm 15 17 mph 1016mb 45f
8:00pm 14 15 mph 1016mb 43f
7:00pm 10 11 mph 1015.7mb 44f
6:00pm 14
mph
1016mb 44f
5:00pm 14 15 mph 1016.4mb 45f
4:00pm 11 13 mph 1016.9mb 45f
3:00pm 9 10 mph 1017.7mb 45f
2:00pm 7 9 mph 1018.5mb 44f
1:00pm  -  2 mph 1019mb 45f
12:00pm 7 9 mph 1019.7mb 42f
11:00am 6 7 mph 1020.4mb 42f
10:00am 9
mph
1020.3mb 42f
9:00am 13 14 mph 1020.3mb 42f
8:00am 18 20 mph 1020.2mb 41f
7:00am 17 20 mph 1019.7mb 39f
6:00am 16 17 mph 1019.3mb 39f
5:00am 14 15 mph 1018.7mb 39f
4:00am 15 17 mph 1018.6mb 40f
3:00am 15 16 mph 1018.5mb 40f
2:00am 11 13 mph 1018.2mb 41f
1:00am 14 16 mph 1018.3mb 41f
12:00am 18 21 mph 1018.4mb 41f
Thu 04/23 11:00pm 20 21 mph 1017.9mb 41f
10:00pm 18 21 mph 1017.6mb 41f
9:00pm 25 26 mph 1017.1mb 41f
8:00pm 23 24 mph 1016.6mb 42f
7:00pm 23 26 mph 1016.4mb 41f
6:00pm 22 25 mph 1016.1mb 41f
5:00pm 23 26 mph 1015.8mb 41f
4:00pm 23 29 mph 1015.4mb 41f
3:00pm 24 28 mph 1015.1mb 40f
2:00pm 24 26 mph 1015.3mb 40f
1:00pm 23 25 mph 1015.1mb 39f
12:00pm 25 28 mph 1014.6mb 38f
11:00am 26 30 mph 1014.4mb 37f
10:00am 31 34 mph 1013.6mb 37f
9:00am 25 29 mph 1013.3mb 38f
8:00am 28 30 mph 1012.9mb 38f
7:00am 29 30 mph 1012.2mb 39f
6:00am 25 28 mph 1011.6mb 39f
5:00am 24 30 mph 1011mb 40f
4:00am 20 24 mph 1010.8mb 39f
3:00am 23 28 mph 1010.5mb 40f
2:00am 21 24 mph 1010.3mb 40f
1:00am 24 28 mph 1010.3mb 40f
12:00am 28 32 mph 1010.4mb 40f
Wed 04/22 11:00pm 24 29 mph 1010.4mb 40f
10:00pm 25 29 mph 1010.7mb 40f
9:00pm 22 26 mph 1010.9mb 41f
8:00pm 26 30 mph 1010.6mb 41f
7:00pm 32 36 mph 1010.3mb 41f
6:00pm 29 33 mph 1009.7mb 41f
5:00pm 31 36 mph 1009.1mb 40f
4:00pm 36 38 mph 1008.1mb 40f
3:00pm 32 39 mph 1007.4mb 40f
2:00pm 30 32 mph 1007.2mb 41f
1:00pm 33 34 mph 1005.6mb 42f
12:00pm 26 29 mph 1005.6mb 42f
11:00am 36 39 mph 1005mb 41f
10:00am 29 32 mph 1004.8mb 43f
9:00am 26 29 mph 1004.7mb 42f
8:00am 26 31 mph 1004.5mb 42f
7:00am 22 24 mph 1004.3mb 42f
6:00am 26 30 mph 1003.7mb 42f
5:00am 21 23 mph 1003.9mb 43f
4:00am 18 21 mph 1003.8mb 44f
3:00am 21 23 mph 1004mb 44f
2:00am 16 17 mph 1004.7mb 44f
1:00am 21 22 mph 1005.1mb 45f